createdAt,value
2018-09-14T00:01:32.873Z,16.33
2018-09-14T00:04:02.127Z,13.60
2018-09-14T00:06:31.607Z,14.53
2018-09-14T00:09:00.924Z,15.70
2018-09-14T00:11:30.509Z,23.10
2018-09-14T00:13:59.832Z,20.23
2018-09-14T00:16:28.986Z,12.93
2018-09-14T00:18:58.140Z,11.73
2018-09-14T00:21:27.493Z,15.10
2018-09-14T00:23:56.632Z,14.47
2018-09-14T00:26:26.162Z,12.27
2018-09-14T00:28:55.662Z,15.80
2018-09-14T00:31:25.150Z,12.73
2018-09-14T00:33:54.356Z,12.33
2018-09-14T00:36:23.922Z,13.07
2018-09-14T00:38:53.407Z,9.07
2018-09-14T00:41:22.626Z,14.40
2018-09-14T00:43:51.875Z,14.63
2018-09-14T00:46:21.504Z,12.80
2018-09-14T00:48:50.692Z,9.03
2018-09-14T00:51:20.019Z,11.20
2018-09-14T00:53:49.376Z,12.50
2018-09-14T00:56:18.697Z,18.50
2018-09-14T00:58:47.985Z,11.03
2018-09-14T01:01:17.473Z,11.70
2018-09-14T01:03:46.706Z,18.53
2018-09-14T01:06:15.925Z,11.00
2018-09-14T01:08:51.567Z,8.97
2018-09-14T01:11:20.576Z,11.90
2018-09-14T01:13:49.724Z,14.70
2018-09-14T01:16:18.954Z,8.20
2018-09-14T01:18:48.144Z,10.00
2018-09-14T01:21:17.548Z,15.23
2018-09-14T01:23:46.700Z,12.70
2018-09-14T01:26:16.132Z,18.73
2018-09-14T01:28:45.323Z,11.13
2018-09-14T01:31:14.858Z,11.00
2018-09-14T01:33:44.545Z,11.37
2018-09-14T01:36:13.856Z,11.03
2018-09-14T01:39:45.933Z,13.83
2018-09-14T01:42:15.315Z,10.87
2018-09-14T01:44:44.503Z,10.27
2018-09-14T01:47:14.069Z,13.27
2018-09-14T01:49:46.273Z,11.27
2018-09-14T01:52:15.693Z,16.50
2018-09-14T01:54:44.979Z,10.87
2018-09-14T01:57:14.220Z,12.43
2018-09-14T01:59:43.165Z,17.00
2018-09-14T02:02:12.422Z,10.07
2018-09-14T02:04:41.673Z,8.80
2018-09-14T02:07:10.990Z,14.10
2018-09-14T02:09:40.384Z,10.27
2018-09-14T02:12:09.498Z,9.57
2018-09-14T02:14:38.728Z,12.87
2018-09-14T02:17:08.019Z,14.13
2018-09-14T02:19:37.352Z,12.93
2018-09-14T02:22:06.616Z,12.27
2018-09-14T02:24:35.989Z,13.23
2018-09-14T02:27:05.307Z,14.60
2018-09-14T02:29:34.351Z,10.13
2018-09-14T02:32:03.904Z,12.43
2018-09-14T02:34:33.168Z,12.60
2018-09-14T02:37:02.880Z,11.70
2018-09-14T02:39:32.295Z,10.40
2018-09-14T02:42:01.765Z,11.17
2018-09-14T02:44:30.748Z,10.10
2018-09-14T02:47:00.020Z,16.37
2018-09-14T02:49:29.384Z,14.63
2018-09-14T02:51:58.701Z,7.80
2018-09-14T02:54:27.983Z,15.00
2018-09-14T02:56:57.327Z,11.33
2018-09-14T02:59:26.565Z,12.17
2018-09-14T03:01:55.918Z,13.73
2018-09-14T03:04:25.085Z,17.13
2018-09-14T03:06:54.699Z,18.13
2018-09-14T03:09:23.847Z,16.97
2018-09-14T03:11:53.103Z,21.53
2018-09-14T03:14:22.389Z,15.70
2018-09-14T03:16:51.606Z,21.23
2018-09-14T03:19:20.976Z,18.20
2018-09-14T03:21:50.435Z,24.23
2018-09-14T03:24:20.083Z,19.20
2018-09-14T03:26:49.316Z,19.83
2018-09-14T03:29:18.584Z,19.17
2018-09-14T03:31:47.700Z,18.37
2018-09-14T03:34:16.893Z,22.10
2018-09-14T03:36:46.122Z,22.13
2018-09-14T03:39:15.434Z,22.47
2018-09-14T03:41:44.614Z,18.40
2018-09-14T03:44:14.000Z,19.20
2018-09-14T03:46:43.323Z,20.73
2018-09-14T03:49:12.488Z,21.17
2018-09-14T03:51:41.724Z,23.93
2018-09-14T03:54:13.738Z,26.30
2018-09-14T03:56:43.423Z,26.43
2018-09-14T03:59:12.903Z,22.70
2018-09-14T04:04:38.241Z,26.43
2018-09-14T04:07:06.699Z,27.77
2018-09-14T04:09:35.177Z,25.57
2018-09-14T04:12:03.581Z,24.30
2018-09-14T04:14:32.372Z,24.77
2018-09-14T04:17:00.738Z,30.00
2018-09-14T04:19:29.127Z,38.23
2018-09-14T04:21:57.877Z,43.30
2018-09-14T04:24:26.363Z,24.60
2018-09-14T04:26:54.654Z,29.60
2018-09-14T04:29:23.155Z,29.60
2018-09-14T04:31:51.605Z,35.07
2018-09-14T04:34:19.950Z,28.37
2018-09-14T04:36:48.271Z,25.87
2018-09-14T04:39:16.734Z,31.70
2018-09-14T04:41:45.106Z,31.57
2018-09-14T04:44:13.366Z,26.33
2018-09-14T04:46:41.691Z,26.97
2018-09-14T04:49:10.358Z,28.03
2018-09-14T04:51:38.637Z,27.10
2018-09-14T04:54:07.062Z,26.27
2018-09-14T04:56:35.370Z,26.13
2018-09-14T04:59:03.691Z,31.77
2018-09-14T05:01:32.279Z,32.50
2018-09-14T05:04:00.670Z,38.53
2018-09-14T05:06:29.015Z,29.20
2018-09-14T05:08:57.589Z,39.13
2018-09-14T05:11:26.016Z,40.33
2018-09-14T05:13:54.417Z,28.57
2018-09-14T05:16:23.052Z,23.33
2018-09-14T05:18:51.398Z,27.03
2018-09-14T05:21:19.717Z,22.00
2018-09-14T05:23:48.043Z,22.63
2018-09-14T05:26:16.314Z,24.43
2018-09-14T05:28:44.607Z,17.10
2018-09-14T05:31:12.966Z,18.40
2018-09-14T05:33:41.586Z,17.20
2018-09-14T05:36:10.195Z,17.60
2018-09-14T05:38:39.462Z,17.20
2018-09-14T05:41:07.829Z,15.90
2018-09-14T05:43:36.117Z,19.23
2018-09-14T05:46:04.473Z,16.10
2018-09-14T05:48:32.959Z,21.93
2018-09-14T05:51:01.286Z,14.60
2018-09-14T05:53:29.700Z,13.10
2018-09-14T05:55:58.135Z,14.50
2018-09-14T05:58:26.444Z,15.37
2018-09-14T06:00:55.927Z,17.40
2018-09-14T06:03:33.425Z,12.40
2018-09-14T06:06:01.904Z,12.10
2018-09-14T06:08:30.462Z,10.63
2018-09-14T06:10:59.133Z,9.17
2018-09-14T06:13:28.218Z,10.77
2018-09-14T06:15:56.852Z,16.30
2018-09-14T06:18:25.219Z,15.97
2018-09-14T06:20:53.526Z,11.87
2018-09-14T06:23:22.126Z,8.80
2018-09-14T06:25:50.828Z,12.13
2018-09-14T06:28:19.446Z,10.50
2018-09-14T06:30:47.961Z,9.47
2018-09-14T06:33:16.262Z,13.50
2018-09-14T06:35:45.176Z,9.37
2018-09-14T06:38:13.487Z,8.37
2018-09-14T06:40:42.230Z,9.30
2018-09-14T06:43:10.732Z,8.63
2018-09-14T06:45:39.020Z,8.67
2018-09-14T06:48:07.554Z,18.83
2018-09-14T06:50:35.876Z,8.90
2018-09-14T06:53:04.143Z,8.90
2018-09-14T06:55:32.450Z,6.03
2018-09-14T06:58:00.737Z,7.87
2018-09-14T07:00:29.304Z,8.43
2018-09-14T07:02:58.091Z,17.30
2018-09-14T07:05:26.607Z,8.30
2018-09-14T07:07:55.422Z,10.30
2018-09-14T07:10:23.705Z,8.83
2018-09-14T07:12:52.193Z,10.30
2018-09-14T07:15:20.534Z,11.70
2018-09-14T07:17:48.974Z,14.43
2018-09-14T07:20:17.282Z,7.77
2018-09-14T07:22:45.579Z,13.73
2018-09-14T07:25:14.447Z,10.37
2018-09-14T07:27:42.825Z,11.27
2018-09-14T07:30:11.140Z,7.43
2018-09-14T07:32:39.686Z,10.90
2018-09-14T07:35:09.162Z,14.53
2018-09-14T07:37:37.720Z,9.50
2018-09-14T07:40:06.046Z,12.20
2018-09-14T07:42:35.069Z,12.67
2018-09-14T07:45:03.307Z,7.63
2018-09-14T07:47:32.353Z,11.87
2018-09-14T07:50:00.635Z,7.00
2018-09-14T07:52:30.396Z,8.00
2018-09-14T07:54:58.811Z,9.87
2018-09-14T07:57:28.051Z,11.20
2018-09-14T07:59:58.126Z,10.73
2018-09-14T08:02:26.791Z,9.63
2018-09-14T08:04:55.153Z,10.30
2018-09-14T08:07:23.949Z,7.97
2018-09-14T08:09:52.539Z,7.13
2018-09-14T08:12:21.088Z,12.20
2018-09-14T08:14:50.179Z,11.10
2018-09-14T08:17:19.064Z,7.63
2018-09-14T08:19:47.623Z,10.70
2018-09-14T08:22:16.444Z,9.90
2018-09-14T08:24:45.408Z,7.63
2018-09-14T08:27:14.947Z,10.60
2018-09-14T08:29:43.238Z,11.40
2018-09-14T08:32:12.194Z,9.30
2018-09-14T08:34:40.503Z,9.30
2018-09-14T08:37:09.186Z,14.87
2018-09-14T08:39:37.639Z,7.90
2018-09-14T08:42:06.194Z,8.20
2018-09-14T08:44:34.634Z,18.33
2018-09-14T08:47:03.008Z,13.50
2018-09-14T08:49:32.236Z,9.20
2018-09-14T08:52:00.643Z,7.23
2018-09-14T08:54:28.953Z,13.90
2018-09-14T08:57:00.775Z,11.40
2018-09-14T08:59:29.249Z,15.47
2018-09-14T09:01:57.654Z,11.57
2018-09-14T09:04:26.330Z,7.10
2018-09-14T09:06:54.627Z,7.87
2018-09-14T09:09:22.960Z,13.20
2018-09-14T09:11:51.287Z,8.20
2018-09-14T09:14:19.812Z,10.50
2018-09-14T09:16:48.314Z,9.30
2018-09-14T09:19:16.623Z,15.53
2018-09-14T09:21:45.051Z,10.07
2018-09-14T09:24:13.361Z,22.03
2018-09-14T09:26:42.754Z,10.27
2018-09-14T09:29:11.508Z,15.87
2018-09-14T09:31:40.157Z,12.57
2018-09-14T09:34:09.455Z,11.30
2018-09-14T09:36:37.911Z,10.40
2018-09-14T09:39:09.726Z,14.40
2018-09-14T09:41:38.327Z,11.77
2018-09-14T09:44:07.147Z,15.27
2018-09-14T09:46:35.415Z,9.77
2018-09-14T09:49:03.705Z,17.27
2018-09-14T09:51:32.112Z,11.20
2018-09-14T09:54:02.209Z,11.47
2018-09-14T09:56:31.190Z,11.90
2018-09-14T09:58:59.655Z,12.50
2018-09-14T10:01:34.692Z,7.20
2018-09-14T10:04:18.376Z,10.90
2018-09-14T10:06:48.162Z,12.10
2018-09-14T10:09:16.631Z,15.73
2018-09-14T10:11:46.729Z,9.63
2018-09-14T10:14:15.190Z,9.70
2018-09-14T10:16:44.449Z,12.47
2018-09-14T10:19:13.346Z,15.23
2018-09-14T10:21:41.935Z,13.20
2018-09-14T10:24:11.006Z,11.83
2018-09-14T10:26:39.519Z,9.70
2018-09-14T10:29:08.005Z,8.73
2018-09-14T10:31:39.755Z,7.70
2018-09-14T10:34:08.555Z,9.83
2018-09-14T10:36:36.834Z,9.70
2018-09-14T10:39:09.917Z,8.63
2018-09-14T10:41:38.275Z,13.30
2018-09-14T10:44:07.045Z,10.37
2018-09-14T10:46:35.698Z,11.43
2018-09-14T10:49:05.135Z,7.03
2018-09-14T10:51:34.075Z,8.13
2018-09-14T10:54:02.853Z,9.43
2018-09-14T10:56:31.839Z,10.23
2018-09-14T10:59:00.095Z,11.67
2018-09-14T11:01:34.218Z,8.30
2018-09-14T11:04:02.686Z,13.43
2018-09-14T11:06:31.438Z,13.77
2018-09-14T11:09:00.474Z,12.23
2018-09-14T11:11:29.978Z,11.53
2018-09-14T11:13:59.076Z,6.97
2018-09-14T11:16:27.724Z,10.90
2018-09-14T11:18:56.124Z,10.33
2018-09-14T11:21:24.990Z,11.83
2018-09-14T11:23:53.958Z,17.47
2018-09-14T11:26:22.366Z,10.10
2018-09-14T11:28:50.846Z,17.27
2018-09-14T11:31:24.129Z,12.47
2018-09-14T11:34:02.935Z,11.00
2018-09-14T11:36:31.336Z,10.33
2018-09-14T11:39:00.629Z,6.80
2018-09-14T11:41:29.376Z,12.33
2018-09-14T11:43:58.543Z,11.83
2018-09-14T11:46:33.648Z,16.23
2018-09-14T11:49:02.007Z,10.30
2018-09-14T11:51:30.319Z,7.90
2018-09-14T11:53:58.687Z,6.40
2018-09-14T11:56:26.998Z,10.60
2018-09-14T11:59:26.265Z,9.53
2018-09-14T12:01:55.696Z,19.90
2018-09-14T12:04:31.071Z,7.87
2018-09-14T12:06:59.836Z,5.53
2018-09-14T12:09:28.144Z,9.10
2018-09-14T12:11:56.508Z,14.27
2018-09-14T12:14:25.405Z,12.47
2018-09-14T12:16:53.774Z,5.17
2018-09-14T12:19:22.054Z,7.60
2018-09-14T12:21:53.368Z,17.33
2018-09-14T12:24:21.841Z,6.60
2018-09-14T12:26:50.378Z,8.97
2018-09-14T12:29:18.708Z,10.27
2018-09-14T12:31:48.133Z,6.40
2018-09-14T12:34:17.249Z,7.10
2018-09-14T12:36:45.623Z,7.97
2018-09-14T12:39:13.984Z,6.40
2018-09-14T12:41:42.686Z,10.30
2018-09-14T12:44:10.993Z,10.80
2018-09-14T12:46:39.528Z,5.70
2018-09-14T12:49:08.982Z,9.93
2018-09-14T12:51:38.997Z,10.93
2018-09-14T12:54:08.939Z,9.80
2018-09-14T12:56:37.966Z,11.60
2018-09-14T12:59:09.627Z,10.50
2018-09-14T13:01:38.134Z,6.67
2018-09-14T13:04:06.529Z,9.17
2018-09-14T13:06:38.021Z,6.93
2018-09-14T13:09:08.714Z,5.53
2018-09-14T13:11:38.050Z,6.77
2018-09-14T13:14:06.418Z,5.27
2018-09-14T13:16:35.280Z,5.17
2018-09-14T13:19:04.411Z,6.87
2018-09-14T13:21:33.948Z,8.33
2018-09-14T13:24:03.573Z,5.70
2018-09-14T13:26:34.709Z,4.80
2018-09-14T13:29:03.520Z,5.37
2018-09-14T13:31:32.525Z,8.40
2018-09-14T13:34:01.704Z,12.67
2018-09-14T13:36:30.977Z,5.43
2018-09-14T13:38:59.817Z,6.83
2018-09-14T13:41:28.873Z,4.97
2018-09-14T13:43:57.700Z,9.67
2018-09-14T13:46:26.646Z,5.37
2018-09-14T13:48:56.093Z,7.50
2018-09-14T13:51:24.413Z,9.43
2018-09-14T13:53:53.187Z,5.87
2018-09-14T13:56:22.043Z,10.57
2018-09-14T13:58:50.352Z,9.47
2018-09-14T14:01:18.930Z,11.10
2018-09-14T14:03:47.289Z,7.00
2018-09-14T14:06:16.360Z,5.87
2018-09-14T14:08:45.824Z,5.27
2018-09-14T14:11:14.783Z,7.83
2018-09-14T14:13:43.493Z,6.50
2018-09-14T14:16:12.399Z,8.73
2018-09-14T14:18:40.774Z,9.50
2018-09-14T14:21:09.716Z,6.33
2018-09-14T14:23:39.266Z,7.17
2018-09-14T14:26:07.834Z,7.33
2018-09-14T14:28:36.442Z,8.47
2018-09-14T14:31:05.906Z,5.00
2018-09-14T14:33:34.406Z,6.13
2018-09-14T14:36:03.700Z,11.20
2018-09-14T14:38:32.745Z,6.80
2018-09-14T14:41:01.584Z,8.70
2018-09-14T14:43:30.239Z,16.60
2018-09-14T14:46:00.002Z,6.10
2018-09-14T14:48:28.484Z,6.40
2018-09-14T14:50:56.906Z,8.13
2018-09-14T14:53:25.196Z,8.57
2018-09-14T14:55:54.259Z,6.00
2018-09-14T14:58:22.542Z,7.13
2018-09-14T15:00:51.418Z,5.40
2018-09-14T15:03:21.018Z,8.27
2018-09-14T15:05:50.397Z,7.37
2018-09-14T15:08:18.807Z,10.03
2018-09-14T15:10:47.642Z,5.13
2018-09-14T15:13:16.447Z,8.03
2018-09-14T15:15:46.240Z,9.50
2018-09-14T15:18:14.921Z,6.90
2018-09-14T15:20:43.996Z,9.10
2018-09-14T15:23:13.398Z,7.23
2018-09-14T15:25:43.299Z,7.83
2018-09-14T15:28:11.634Z,12.23
2018-09-14T15:30:40.715Z,10.10
2018-09-14T15:33:10.416Z,6.77
2018-09-14T15:35:40.246Z,11.57
2018-09-14T15:38:08.755Z,8.30
2018-09-14T15:40:38.808Z,4.00
2018-09-14T15:43:07.850Z,11.90
2018-09-14T15:45:37.265Z,16.60
2018-09-14T15:48:06.166Z,5.27
2018-09-14T15:50:35.911Z,5.50
2018-09-14T15:53:05.036Z,6.93
2018-09-14T15:55:33.357Z,6.63
2018-09-14T15:58:02.715Z,8.47
2018-09-14T16:00:31.066Z,6.33
2018-09-14T16:02:59.451Z,4.80
2018-09-14T16:05:28.753Z,8.00
2018-09-14T16:07:57.271Z,9.63
2018-09-14T16:10:26.477Z,11.77
2018-09-14T16:12:55.221Z,6.43
2018-09-14T16:15:23.660Z,4.20
2018-09-14T16:17:52.677Z,14.33
2018-09-14T16:20:21.427Z,5.60
2018-09-14T16:22:49.886Z,11.93
2018-09-14T16:25:18.828Z,4.50
2018-09-14T16:27:47.667Z,9.07
2018-09-14T16:30:16.173Z,6.73
2018-09-14T16:32:46.582Z,7.90
2018-09-14T16:35:14.927Z,13.80
2018-09-14T16:37:43.853Z,10.17
2018-09-14T16:40:12.212Z,5.60
2018-09-14T16:42:40.931Z,9.70
2018-09-14T16:45:10.435Z,8.93
2018-09-14T16:47:39.649Z,6.20
2018-09-14T16:50:07.982Z,11.97
2018-09-14T16:52:37.104Z,5.93
2018-09-14T16:55:05.990Z,5.00
2018-09-14T16:57:35.357Z,6.13
2018-09-14T17:00:05.578Z,9.53
2018-09-14T17:02:34.546Z,6.03
2018-09-14T17:05:03.514Z,12.97
2018-09-14T17:07:33.587Z,9.60
2018-09-14T17:10:02.088Z,5.67
2018-09-14T17:12:31.073Z,7.93
2018-09-14T17:14:59.350Z,6.07
2018-09-14T17:17:28.054Z,10.00
2018-09-14T17:19:56.340Z,9.53
2018-09-14T17:22:25.020Z,12.03
2018-09-14T17:24:53.903Z,7.50
2018-09-14T17:27:23.305Z,5.30
2018-09-14T17:29:52.683Z,6.43
2018-09-14T17:32:21.302Z,8.80
2018-09-14T17:34:49.937Z,10.00
2018-09-14T17:37:19.142Z,8.73
2018-09-14T17:39:47.624Z,17.57
2018-09-14T17:42:16.101Z,10.47
2018-09-14T17:44:44.894Z,7.03
2018-09-14T17:47:14.980Z,5.63
2018-09-14T17:49:43.525Z,9.97
2018-09-14T17:52:12.850Z,12.07
2018-09-14T17:54:41.441Z,18.17
2018-09-14T17:57:10.822Z,10.07
2018-09-14T17:59:46.476Z,8.60
2018-09-14T18:02:15.853Z,7.97
2018-09-14T18:04:45.535Z,7.37
2018-09-14T18:07:13.934Z,11.37
2018-09-14T18:09:43.803Z,16.07
2018-09-14T18:12:12.781Z,9.20
2018-09-14T18:14:41.378Z,8.80
2018-09-14T18:17:11.803Z,9.50
2018-09-14T18:19:40.346Z,17.43
2018-09-14T18:22:08.730Z,8.27
2018-09-14T18:24:37.488Z,8.80
2018-09-14T18:27:06.928Z,8.73
2018-09-14T18:29:36.640Z,13.40
2018-09-14T18:32:05.413Z,7.90
2018-09-14T18:34:42.892Z,9.67
2018-09-14T18:37:13.068Z,14.63
2018-09-14T18:39:50.607Z,9.80
2018-09-14T18:42:24.246Z,14.97
2018-09-14T18:44:54.097Z,10.73
2018-09-14T18:47:23.125Z,12.70
2018-09-14T18:49:51.803Z,9.40
2018-09-14T18:52:20.858Z,12.53
2018-09-14T18:54:50.573Z,8.47
2018-09-14T18:57:19.492Z,10.20
2018-09-14T18:59:49.032Z,12.27
2018-09-14T19:02:19.509Z,8.90
2018-09-14T19:04:48.973Z,13.13
2018-09-14T19:07:19.649Z,6.20
2018-09-14T19:09:48.051Z,8.23
2018-09-14T19:12:16.552Z,7.20
2018-09-14T19:14:45.239Z,12.00
2018-09-14T19:17:14.254Z,9.00
2018-09-14T19:19:42.782Z,14.40
2018-09-14T19:22:11.265Z,9.63
2018-09-14T19:24:40.977Z,12.97
2018-09-14T19:27:09.392Z,12.97
2018-09-14T19:29:38.246Z,12.20
2018-09-14T19:32:07.202Z,14.07
2018-09-14T19:34:35.829Z,13.13
2018-09-14T19:37:05.463Z,14.53
2018-09-14T19:39:40.802Z,10.17
2018-09-14T19:42:09.466Z,14.53
2018-09-14T19:44:38.869Z,12.80
2018-09-14T19:47:09.039Z,17.80
2018-09-14T19:49:41.082Z,15.50
2018-09-14T19:52:10.478Z,13.60
2018-09-14T19:54:39.757Z,12.80
2018-09-14T19:57:10.760Z,11.93
2018-09-14T19:59:40.070Z,14.43
2018-09-14T20:02:09.284Z,8.30
2018-09-14T20:04:38.361Z,11.23
2018-09-14T20:07:07.225Z,10.17
2018-09-14T20:09:35.822Z,13.40
2018-09-14T20:12:06.268Z,13.53
2018-09-14T20:14:34.606Z,10.30
2018-09-14T20:17:02.905Z,11.53
2018-09-14T20:19:31.942Z,10.37
2018-09-14T20:22:00.748Z,14.53
2018-09-14T20:24:29.216Z,11.97
2018-09-14T20:26:58.086Z,12.73
2018-09-14T20:29:26.760Z,10.53
2018-09-14T20:31:55.596Z,7.67
2018-09-14T20:34:23.950Z,13.17
2018-09-14T20:36:52.683Z,12.50
2018-09-14T20:39:21.075Z,9.57
2018-09-14T20:41:50.007Z,15.57
2018-09-14T20:44:18.667Z,13.60
2018-09-14T20:46:47.037Z,10.03
2018-09-14T20:49:15.755Z,11.23
2018-09-14T20:51:44.201Z,18.47
2018-09-14T20:54:12.950Z,12.60
2018-09-14T20:56:41.378Z,10.00
2018-09-14T20:59:09.839Z,10.30
2018-09-14T21:01:38.589Z,8.10
2018-09-14T21:04:07.167Z,9.77
2018-09-14T21:06:40.191Z,9.90
2018-09-14T21:09:10.980Z,10.10
2018-09-14T21:11:40.035Z,11.73
2018-09-14T21:14:12.381Z,12.10
2018-09-14T21:16:41.357Z,12.90
2018-09-14T21:19:13.077Z,12.00
2018-09-14T21:21:42.641Z,11.20
2018-09-14T21:24:11.479Z,10.40
2018-09-14T21:26:40.109Z,13.17
2018-09-14T21:29:11.535Z,11.93
2018-09-14T21:31:39.915Z,11.33
2018-09-14T21:34:09.374Z,8.60
2018-09-14T21:36:38.743Z,10.43
2018-09-14T21:39:09.487Z,12.33
2018-09-14T21:41:38.345Z,12.00
2018-09-14T21:44:07.642Z,8.10
2018-09-14T21:46:36.595Z,11.17
2018-09-14T21:49:05.205Z,11.80
2018-09-14T21:51:34.163Z,9.40
2018-09-14T21:54:03.227Z,8.30
2018-09-14T21:56:32.008Z,9.20
2018-09-14T21:59:00.346Z,9.53
2018-09-14T22:01:30.514Z,10.43
2018-09-14T22:04:00.165Z,8.83
2018-09-14T22:06:28.781Z,9.20
2018-09-14T22:08:57.717Z,12.33
2018-09-14T22:11:29.091Z,10.70
2018-09-14T22:13:57.764Z,15.40
2018-09-14T22:16:26.819Z,11.43
2018-09-14T22:18:55.146Z,9.77
2018-09-14T22:21:23.620Z,9.73
2018-09-14T22:23:51.921Z,11.97
2018-09-14T22:26:20.207Z,9.70
2018-09-14T22:28:55.334Z,9.93
2018-09-14T22:31:23.783Z,13.07
2018-09-14T22:33:52.066Z,15.00
2018-09-14T22:36:20.812Z,8.40
2018-09-14T22:38:49.138Z,8.80
2018-09-14T22:41:17.454Z,26.47
2018-09-14T22:43:46.354Z,9.27
2018-09-14T22:46:15.870Z,10.13
2018-09-14T22:48:44.214Z,24.57
2018-09-14T22:51:12.521Z,12.63
2018-09-14T22:53:41.286Z,10.87
2018-09-14T22:56:09.683Z,12.30
2018-09-14T22:58:37.979Z,10.67
2018-09-14T23:01:11.542Z,17.17
2018-09-14T23:03:40.261Z,11.20
2018-09-14T23:06:10.527Z,8.50
2018-09-14T23:08:48.709Z,14.90
2018-09-14T23:11:17.128Z,11.37
2018-09-14T23:13:45.976Z,11.70
2018-09-14T23:16:14.279Z,6.33
2018-09-14T23:18:44.066Z,27.47
2018-09-14T23:21:19.235Z,11.23
2018-09-14T23:23:47.714Z,8.20
2018-09-14T23:26:19.308Z,14.17
2018-09-14T23:28:47.569Z,9.70
2018-09-14T23:31:15.833Z,7.50
2018-09-14T23:33:44.357Z,15.53
2018-09-14T23:36:13.154Z,12.07
2018-09-14T23:38:41.428Z,10.97
2018-09-14T23:41:09.720Z,9.53
2018-09-14T23:43:37.993Z,6.83
2018-09-14T23:46:07.053Z,10.03
2018-09-14T23:48:35.399Z,9.40
2018-09-14T23:51:04.102Z,15.17
2018-09-14T23:53:32.413Z,13.40
2018-09-14T23:56:00.727Z,11.20
2018-09-14T23:58:29.053Z,9.00
